sensor_id;sensor_type;location;lat;lon;timestamp;temperature;humidity
42147;DHT22;27815;43.410;11.852;2024-02-28T00:00:24;11.60;72.60
42147;DHT22;27815;43.410;11.852;2024-02-28T00:04:27;11.50;72.70
42147;DHT22;27815;43.410;11.852;2024-02-28T00:08:30;11.50;73.00
42147;DHT22;27815;43.410;11.852;2024-02-28T00:12:33;11.50;73.20
42147;DHT22;27815;43.410;11.852;2024-02-28T00:16:49;11.50;73.50
42147;DHT22;27815;43.410;11.852;2024-02-28T00:20:53;11.40;73.60
42147;DHT22;27815;43.410;11.852;2024-02-28T00:24:57;11.40;73.70
42147;DHT22;27815;43.410;11.852;2024-02-28T00:29:00;11.40;73.80
42147;DHT22;27815;43.410;11.852;2024-02-28T00:33:04;11.30;73.80
42147;DHT22;27815;43.410;11.852;2024-02-28T00:37:07;11.20;74.00
42147;DHT22;27815;43.410;11.852;2024-02-28T00:41:10;11.20;74.20
42147;DHT22;27815;43.410;11.852;2024-02-28T00:45:13;11.10;74.20
42147;DHT22;27815;43.410;11.852;2024-02-28T00:49:16;11.20;74.20
42147;DHT22;27815;43.410;11.852;2024-02-28T00:53:20;11.20;74.20
42147;DHT22;27815;43.410;11.852;2024-02-28T00:57:23;11.20;74.20
42147;DHT22;27815;43.410;11.852;2024-02-28T01:01:26;11.20;74.20
42147;DHT22;27815;43.410;11.852;2024-02-28T01:05:31;11.30;74.20
42147;DHT22;27815;43.410;11.852;2024-02-28T01:09:34;11.20;74.40
42147;DHT22;27815;43.410;11.852;2024-02-28T01:13:37;11.20;74.50
42147;DHT22;27815;43.410;11.852;2024-02-28T01:17:40;11.30;74.40
42147;DHT22;27815;43.410;11.852;2024-02-28T01:21:44;11.20;74.40
42147;DHT22;27815;43.410;11.852;2024-02-28T01:26:13;11.20;74.50
42147;DHT22;27815;43.410;11.852;2024-02-28T01:30:49;11.20;74.60
42147;DHT22;27815;43.410;11.852;2024-02-28T01:35:09;11.10;74.60
42147;DHT22;27815;43.410;11.852;2024-02-28T01:39:13;11.00;74.80
42147;DHT22;27815;43.410;11.852;2024-02-28T01:43:17;11.00;74.80
42147;DHT22;27815;43.410;11.852;2024-02-28T01:47:20;11.00;75.10
42147;DHT22;27815;43.410;11.852;2024-02-28T01:51:27;10.90;75.10
42147;DHT22;27815;43.410;11.852;2024-02-28T01:55:30;10.90;75.10
42147;DHT22;27815;43.410;11.852;2024-02-28T01:59:34;10.90;75.00
42147;DHT22;27815;43.410;11.852;2024-02-28T02:03:38;10.80;75.40
42147;DHT22;27815;43.410;11.852;2024-02-28T02:07:41;10.90;75.70
42147;DHT22;27815;43.410;11.852;2024-02-28T02:11:48;10.90;75.90
42147;DHT22;27815;43.410;11.852;2024-02-28T02:15:51;10.80;76.00
42147;DHT22;27815;43.410;11.852;2024-02-28T02:19:54;10.80;75.90
42147;DHT22;27815;43.410;11.852;2024-02-28T02:23:58;10.80;75.80
42147;DHT22;27815;43.410;11.852;2024-02-28T02:28:01;10.80;76.10
42147;DHT22;27815;43.410;11.852;2024-02-28T02:32:07;10.80;76.10
42147;DHT22;27815;43.410;11.852;2024-02-28T02:36:11;10.80;76.00
42147;DHT22;27815;43.410;11.852;2024-02-28T02:40:15;10.80;75.90
42147;DHT22;27815;43.410;11.852;2024-02-28T02:44:21;10.80;75.90
42147;DHT22;27815;43.410;11.852;2024-02-28T02:48:24;10.90;75.80
42147;DHT22;27815;43.410;11.852;2024-02-28T02:52:28;10.90;75.90
42147;DHT22;27815;43.410;11.852;2024-02-28T02:56:33;10.90;75.70
42147;DHT22;27815;43.410;11.852;2024-02-28T03:00:39;10.80;75.70
42147;DHT22;27815;43.410;11.852;2024-02-28T03:04:42;10.80;75.90
42147;DHT22;27815;43.410;11.852;2024-02-28T03:08:45;10.90;75.90
42147;DHT22;27815;43.410;11.852;2024-02-28T03:12:48;10.90;75.90
42147;DHT22;27815;43.410;11.852;2024-02-28T03:16:51;10.90;75.80
42147;DHT22;27815;43.410;11.852;2024-02-28T03:20:55;10.80;75.80
42147;DHT22;27815;43.410;11.852;2024-02-28T03:25:01;10.80;76.00
42147;DHT22;27815;43.410;11.852;2024-02-28T03:29:04;10.80;76.00
42147;DHT22;27815;43.410;11.852;2024-02-28T03:33:10;10.80;76.00
42147;DHT22;27815;43.410;11.852;2024-02-28T03:37:13;10.80;76.10
42147;DHT22;27815;43.410;11.852;2024-02-28T03:41:16;11.00;76.30
42147;DHT22;27815;43.410;11.852;2024-02-28T03:45:19;11.10;76.40
42147;DHT22;27815;43.410;11.852;2024-02-28T03:49:24;11.00;76.60
42147;DHT22;27815;43.410;11.852;2024-02-28T03:53:31;11.20;76.90
42147;DHT22;27815;43.410;11.852;2024-02-28T03:57:37;11.50;76.60
42147;DHT22;27815;43.410;11.852;2024-02-28T04:01:40;11.60;76.20
42147;DHT22;27815;43.410;11.852;2024-02-28T04:05:43;11.80;75.90
42147;DHT22;27815;43.410;11.852;2024-02-28T04:09:46;12.00;75.60
42147;DHT22;27815;43.410;11.852;2024-02-28T04:13:50;12.00;75.20
42147;DHT22;27815;43.410;11.852;2024-02-28T04:23:11;12.30;74.60
42147;DHT22;27815;43.410;11.852;2024-02-28T04:27:13;12.40;74.20
42147;DHT22;27815;43.410;11.852;2024-02-28T04:31:17;12.40;74.10
42147;DHT22;27815;43.410;11.852;2024-02-28T04:35:20;12.50;73.50
42147;DHT22;27815;43.410;11.852;2024-02-28T04:39:23;12.50;73.30
42147;DHT22;27815;43.410;11.852;2024-02-28T04:43:26;12.40;73.30
42147;DHT22;27815;43.410;11.852;2024-02-28T04:47:29;12.30;73.40
42147;DHT22;27815;43.410;11.852;2024-02-28T04:51:44;12.40;73.30
42147;DHT22;27815;43.410;11.852;2024-02-28T04:55:47;12.50;73.10
42147;DHT22;27815;43.410;11.852;2024-02-28T04:59:51;12.50;73.00
42147;DHT22;27815;43.410;11.852;2024-02-28T05:03:54;12.50;72.80
42147;DHT22;27815;43.410;11.852;2024-02-28T05:07:57;12.60;72.70
42147;DHT22;27815;43.410;11.852;2024-02-28T05:12:00;12.60;72.60
42147;DHT22;27815;43.410;11.852;2024-02-28T05:16:03;12.60;72.50
42147;DHT22;27815;43.410;11.852;2024-02-28T05:20:06;12.60;72.50
42147;DHT22;27815;43.410;11.852;2024-02-28T05:24:10;12.60;72.30
42147;DHT22;27815;43.410;11.852;2024-02-28T05:28:13;12.60;72.10
42147;DHT22;27815;43.410;11.852;2024-02-28T05:32:15;12.70;71.90
42147;DHT22;27815;43.410;11.852;2024-02-28T05:36:20;12.60;71.80
42147;DHT22;27815;43.410;11.852;2024-02-28T05:40:23;12.70;71.70
42147;DHT22;27815;43.410;11.852;2024-02-28T05:44:25;12.70;71.60
42147;DHT22;27815;43.410;11.852;2024-02-28T05:48:28;12.80;71.60
42147;DHT22;27815;43.410;11.852;2024-02-28T05:52:31;12.80;71.50
42147;DHT22;27815;43.410;11.852;2024-02-28T05:56:34;12.80;71.40
42147;DHT22;27815;43.410;11.852;2024-02-28T06:00:37;12.80;71.30
42147;DHT22;27815;43.410;11.852;2024-02-28T06:04:40;12.80;71.30
42147;DHT22;27815;43.410;11.852;2024-02-28T06:08:44;12.70;71.30
42147;DHT22;27815;43.410;11.852;2024-02-28T06:12:46;12.60;71.30
42147;DHT22;27815;43.410;11.852;2024-02-28T06:16:49;12.60;71.40
42147;DHT22;27815;43.410;11.852;2024-02-28T06:20:53;12.50;71.50
42147;DHT22;27815;43.410;11.852;2024-02-28T06:24:59;12.50;71.60
42147;DHT22;27815;43.410;11.852;2024-02-28T06:29:02;12.50;71.60
42147;DHT22;27815;43.410;11.852;2024-02-28T06:33:07;12.50;71.60
42147;DHT22;27815;43.410;11.852;2024-02-28T06:37:11;12.50;71.60
42147;DHT22;27815;43.410;11.852;2024-02-28T06:41:14;12.60;71.60
42147;DHT22;27815;43.410;11.852;2024-02-28T06:45:17;12.50;71.50
42147;DHT22;27815;43.410;11.852;2024-02-28T06:49:20;12.60;71.40
42147;DHT22;27815;43.410;11.852;2024-02-28T06:53:23;12.60;71.30
42147;DHT22;27815;43.410;11.852;2024-02-28T06:57:26;12.60;71.20
42147;DHT22;27815;43.410;11.852;2024-02-28T07:01:29;12.70;71.20
42147;DHT22;27815;43.410;11.852;2024-02-28T07:05:32;12.80;71.10
42147;DHT22;27815;43.410;11.852;2024-02-28T07:09:38;12.80;71.00
42147;DHT22;27815;43.410;11.852;2024-02-28T07:13:41;12.90;71.00
42147;DHT22;27815;43.410;11.852;2024-02-28T07:17:44;12.90;70.90
42147;DHT22;27815;43.410;11.852;2024-02-28T07:21:47;12.90;70.80
42147;DHT22;27815;43.410;11.852;2024-02-28T07:25:50;13.00;70.80
42147;DHT22;27815;43.410;11.852;2024-02-28T07:29:53;13.10;70.70
42147;DHT22;27815;43.410;11.852;2024-02-28T07:33:57;13.10;70.60
42147;DHT22;27815;43.410;11.852;2024-02-28T07:38:00;13.20;70.40
42147;DHT22;27815;43.410;11.852;2024-02-28T07:42:03;13.30;70.20
42147;DHT22;27815;43.410;11.852;2024-02-28T07:46:07;13.50;69.30
42147;DHT22;27815;43.410;11.852;2024-02-28T07:50:11;13.60;69.30
42147;DHT22;27815;43.410;11.852;2024-02-28T07:54:14;13.70;69.00
42147;DHT22;27815;43.410;11.852;2024-02-28T07:58:17;13.70;68.80
42147;DHT22;27815;43.410;11.852;2024-02-28T08:02:20;13.80;68.90
42147;DHT22;27815;43.410;11.852;2024-02-28T08:06:24;13.80;68.70
42147;DHT22;27815;43.410;11.852;2024-02-28T08:10:27;13.80;68.60
42147;DHT22;27815;43.410;11.852;2024-02-28T08:14:30;13.90;68.70
42147;DHT22;27815;43.410;11.852;2024-02-28T08:18:33;14.00;68.60
42147;DHT22;27815;43.410;11.852;2024-02-28T08:22:37;14.00;68.50
42147;DHT22;27815;43.410;11.852;2024-02-28T08:26:40;14.00;68.30
42147;DHT22;27815;43.410;11.852;2024-02-28T08:30:44;14.10;68.30
42147;DHT22;27815;43.410;11.852;2024-02-28T08:34:47;14.20;68.10
42147;DHT22;27815;43.410;11.852;2024-02-28T08:38:50;14.20;68.10
42147;DHT22;27815;43.410;11.852;2024-02-28T08:42:54;14.30;68.00
42147;DHT22;27815;43.410;11.852;2024-02-28T08:46:57;14.40;67.80
42147;DHT22;27815;43.410;11.852;2024-02-28T08:51:00;14.40;67.70
42147;DHT22;27815;43.410;11.852;2024-02-28T08:55:03;14.40;67.60
42147;DHT22;27815;43.410;11.852;2024-02-28T08:59:06;14.40;67.50
42147;DHT22;27815;43.410;11.852;2024-02-28T09:03:09;14.40;67.50
42147;DHT22;27815;43.410;11.852;2024-02-28T09:07:12;14.50;67.30
42147;DHT22;27815;43.410;11.852;2024-02-28T09:11:16;14.50;67.10
42147;DHT22;27815;43.410;11.852;2024-02-28T09:15:19;14.50;67.10
42147;DHT22;27815;43.410;11.852;2024-02-28T09:19:22;14.50;67.10
42147;DHT22;27815;43.410;11.852;2024-02-28T09:23:25;14.50;66.90
42147;DHT22;27815;43.410;11.852;2024-02-28T09:27:28;14.60;66.90
42147;DHT22;27815;43.410;11.852;2024-02-28T09:31:31;14.60;66.70
42147;DHT22;27815;43.410;11.852;2024-02-28T09:35:35;14.80;66.60
42147;DHT22;27815;43.410;11.852;2024-02-28T09:39:39;14.90;66.40
42147;DHT22;27815;43.410;11.852;2024-02-28T09:43:44;15.00;66.20
42147;DHT22;27815;43.410;11.852;2024-02-28T09:47:49;15.10;66.00
42147;DHT22;27815;43.410;11.852;2024-02-28T09:51:52;15.30;65.80
42147;DHT22;27815;43.410;11.852;2024-02-28T09:55:55;15.60;65.30
42147;DHT22;27815;43.410;11.852;2024-02-28T09:59:59;15.70;64.80
42147;DHT22;27815;43.410;11.852;2024-02-28T10:04:07;15.90;64.60
42147;DHT22;27815;43.410;11.852;2024-02-28T10:08:13;16.00;63.90
42147;DHT22;27815;43.410;11.852;2024-02-28T10:12:17;16.00;64.10
42147;DHT22;27815;43.410;11.852;2024-02-28T10:16:22;16.00;63.90
42147;DHT22;27815;43.410;11.852;2024-02-28T10:20:25;15.90;63.90
42147;DHT22;27815;43.410;11.852;2024-02-28T10:24:28;15.90;63.80
42147;DHT22;27815;43.410;11.852;2024-02-28T10:28:31;15.90;63.90
42147;DHT22;27815;43.410;11.852;2024-02-28T10:32:35;15.90;64.10
42147;DHT22;27815;43.410;11.852;2024-02-28T10:36:39;16.00;64.10
42147;DHT22;27815;43.410;11.852;2024-02-28T10:40:42;16.00;63.90
42147;DHT22;27815;43.410;11.852;2024-02-28T10:44:47;16.10;63.50
42147;DHT22;27815;43.410;11.852;2024-02-28T10:49:02;16.20;63.40
42147;DHT22;27815;43.410;11.852;2024-02-28T10:53:10;16.30;63.50
42147;DHT22;27815;43.410;11.852;2024-02-28T10:57:16;16.30;63.50
42147;DHT22;27815;43.410;11.852;2024-02-28T11:01:21;16.50;63.10
42147;DHT22;27815;43.410;11.852;2024-02-28T11:05:38;16.50;62.60
42147;DHT22;27815;43.410;11.852;2024-02-28T11:09:41;16.60;62.20
42147;DHT22;27815;43.410;11.852;2024-02-28T11:13:55;16.80;62.00
42147;DHT22;27815;43.410;11.852;2024-02-28T11:18:11;16.80;62.00
42147;DHT22;27815;43.410;11.852;2024-02-28T11:22:13;16.80;61.70
42147;DHT22;27815;43.410;11.852;2024-02-28T11:26:21;16.80;61.80
42147;DHT22;27815;43.410;11.852;2024-02-28T11:30:25;16.90;62.00
42147;DHT22;27815;43.410;11.852;2024-02-28T11:34:28;16.90;61.60
42147;DHT22;27815;43.410;11.852;2024-02-28T11:38:31;16.90;61.40
42147;DHT22;27815;43.410;11.852;2024-02-28T11:42:34;16.90;61.40
42147;DHT22;27815;43.410;11.852;2024-02-28T11:46:38;17.00;61.30
42147;DHT22;27815;43.410;11.852;2024-02-28T11:50:41;17.00;61.20
42147;DHT22;27815;43.410;11.852;2024-02-28T11:54:45;17.00;61.30
42147;DHT22;27815;43.410;11.852;2024-02-28T11:58:54;17.00;61.20
42147;DHT22;27815;43.410;11.852;2024-02-28T12:03:07;17.00;61.20
42147;DHT22;27815;43.410;11.852;2024-02-28T12:07:10;17.10;61.00
42147;DHT22;27815;43.410;11.852;2024-02-28T12:11:13;17.10;61.00
42147;DHT22;27815;43.410;11.852;2024-02-28T12:15:16;17.10;61.00
42147;DHT22;27815;43.410;11.852;2024-02-28T12:19:19;17.20;61.10
42147;DHT22;27815;43.410;11.852;2024-02-28T12:23:23;17.30;60.90
42147;DHT22;27815;43.410;11.852;2024-02-28T12:27:26;17.30;60.90
42147;DHT22;27815;43.410;11.852;2024-02-28T12:31:29;17.50;61.00
42147;DHT22;27815;43.410;11.852;2024-02-28T12:35:32;17.70;60.70
42147;DHT22;27815;43.410;11.852;2024-02-28T12:39:39;17.70;60.60
42147;DHT22;27815;43.410;11.852;2024-02-28T12:43:43;17.70;60.20
42147;DHT22;27815;43.410;11.852;2024-02-28T12:47:46;17.60;60.50
42147;DHT22;27815;43.410;11.852;2024-02-28T12:51:52;17.60;60.60
42147;DHT22;27815;43.410;11.852;2024-02-28T12:55:55;17.50;60.70
42147;DHT22;27815;43.410;11.852;2024-02-28T12:59:58;17.50;60.50
42147;DHT22;27815;43.410;11.852;2024-02-28T13:04:01;17.40;60.60
42147;DHT22;27815;43.410;11.852;2024-02-28T13:08:05;17.30;60.30
42147;DHT22;27815;43.410;11.852;2024-02-28T13:12:08;17.20;60.20
42147;DHT22;27815;43.410;11.852;2024-02-28T13:16:11;17.20;60.40
42147;DHT22;27815;43.410;11.852;2024-02-28T13:20:14;17.50;60.30
42147;DHT22;27815;43.410;11.852;2024-02-28T13:24:17;17.60;60.10
42147;DHT22;27815;43.410;11.852;2024-02-28T13:28:19;17.70;59.90
42147;DHT22;27815;43.410;11.852;2024-02-28T13:32:23;17.80;59.60
42147;DHT22;27815;43.410;11.852;2024-02-28T13:36:26;17.90;59.60
42147;DHT22;27815;43.410;11.852;2024-02-28T13:40:29;18.00;59.10
42147;DHT22;27815;43.410;11.852;2024-02-28T13:44:33;18.10;58.60
42147;DHT22;27815;43.410;11.852;2024-02-28T13:48:37;18.00;57.80
42147;DHT22;27815;43.410;11.852;2024-02-28T13:52:40;18.00;57.60
42147;DHT22;27815;43.410;11.852;2024-02-28T13:56:43;18.00;57.60
42147;DHT22;27815;43.410;11.852;2024-02-28T14:00:46;18.00;57.50
42147;DHT22;27815;43.410;11.852;2024-02-28T14:04:50;18.00;57.60
42147;DHT22;27815;43.410;11.852;2024-02-28T14:08:52;18.00;57.80
42147;DHT22;27815;43.410;11.852;2024-02-28T14:12:56;18.00;57.20
42147;DHT22;27815;43.410;11.852;2024-02-28T14:16:59;18.00;57.00
42147;DHT22;27815;43.410;11.852;2024-02-28T14:21:02;18.00;57.20
42147;DHT22;27815;43.410;11.852;2024-02-28T14:25:15;18.20;57.40
42147;DHT22;27815;43.410;11.852;2024-02-28T14:29:19;18.40;57.10
42147;DHT22;27815;43.410;11.852;2024-02-28T14:33:22;18.30;56.80
42147;DHT22;27815;43.410;11.852;2024-02-28T14:37:25;18.00;57.10
42147;DHT22;27815;43.410;11.852;2024-02-28T14:41:29;17.90;57.50
42147;DHT22;27815;43.410;11.852;2024-02-28T14:45:32;17.60;57.80
42147;DHT22;27815;43.410;11.852;2024-02-28T14:49:35;17.50;58.00
42147;DHT22;27815;43.410;11.852;2024-02-28T14:53:39;17.40;58.30
42147;DHT22;27815;43.410;11.852;2024-02-28T14:57:44;17.30;58.50
42147;DHT22;27815;43.410;11.852;2024-02-28T15:01:46;17.20;58.70
42147;DHT22;27815;43.410;11.852;2024-02-28T15:05:50;17.20;58.60
42147;DHT22;27815;43.410;11.852;2024-02-28T15:09:52;17.10;58.70
42147;DHT22;27815;43.410;11.852;2024-02-28T15:13:55;17.20;58.50
42147;DHT22;27815;43.410;11.852;2024-02-28T15:17:58;17.30;58.30
42147;DHT22;27815;43.410;11.852;2024-02-28T15:22:03;17.40;58.30
42147;DHT22;27815;43.410;11.852;2024-02-28T15:26:06;17.40;57.90
42147;DHT22;27815;43.410;11.852;2024-02-28T15:30:09;17.30;58.00
42147;DHT22;27815;43.410;11.852;2024-02-28T15:34:12;17.20;58.00
42147;DHT22;27815;43.410;11.852;2024-02-28T15:38:16;17.10;58.10
42147;DHT22;27815;43.410;11.852;2024-02-28T15:42:19;17.00;58.40
42147;DHT22;27815;43.410;11.852;2024-02-28T15:46:22;16.80;58.70
42147;DHT22;27815;43.410;11.852;2024-02-28T15:50:25;16.80;58.70
42147;DHT22;27815;43.410;11.852;2024-02-28T15:54:28;16.70;58.90
42147;DHT22;27815;43.410;11.852;2024-02-28T15:58:31;16.60;59.10
42147;DHT22;27815;43.410;11.852;2024-02-28T16:02:34;16.60;59.30
42147;DHT22;27815;43.410;11.852;2024-02-28T16:06:37;16.50;59.30
42147;DHT22;27815;43.410;11.852;2024-02-28T16:10:45;16.50;59.30
42147;DHT22;27815;43.410;11.852;2024-02-28T16:14:48;16.30;59.40
42147;DHT22;27815;43.410;11.852;2024-02-28T16:18:51;16.20;59.50
42147;DHT22;27815;43.410;11.852;2024-02-28T16:22:55;16.10;59.60
42147;DHT22;27815;43.410;11.852;2024-02-28T16:26:57;16.00;59.70
42147;DHT22;27815;43.410;11.852;2024-02-28T16:31:00;16.00;59.70
42147;DHT22;27815;43.410;11.852;2024-02-28T16:35:03;15.90;59.80
42147;DHT22;27815;43.410;11.852;2024-02-28T16:39:07;15.80;59.70
42147;DHT22;27815;43.410;11.852;2024-02-28T16:43:10;15.80;59.80
42147;DHT22;27815;43.410;11.852;2024-02-28T16:47:13;15.70;59.90
42147;DHT22;27815;43.410;11.852;2024-02-28T16:51:16;15.60;60.00
42147;DHT22;27815;43.410;11.852;2024-02-28T16:55:20;15.50;60.20
42147;DHT22;27815;43.410;11.852;2024-02-28T16:59:23;15.40;60.40
42147;DHT22;27815;43.410;11.852;2024-02-28T17:03:26;15.30;60.50
42147;DHT22;27815;43.410;11.852;2024-02-28T17:07:29;15.30;60.70
42147;DHT22;27815;43.410;11.852;2024-02-28T17:11:33;15.20;60.90
42147;DHT22;27815;43.410;11.852;2024-02-28T17:15:36;15.10;60.90
42147;DHT22;27815;43.410;11.852;2024-02-28T17:19:39;15.10;60.90
42147;DHT22;27815;43.410;11.852;2024-02-28T17:23:44;15.00;60.90
42147;DHT22;27815;43.410;11.852;2024-02-28T17:27:47;15.10;60.90
42147;DHT22;27815;43.410;11.852;2024-02-28T17:31:50;15.00;61.00
42147;DHT22;27815;43.410;11.852;2024-02-28T17:35:54;15.00;61.10
42147;DHT22;27815;43.410;11.852;2024-02-28T17:39:57;15.00;61.10
42147;DHT22;27815;43.410;11.852;2024-02-28T17:44:00;15.00;61.20
42147;DHT22;27815;43.410;11.852;2024-02-28T17:48:03;14.90;61.30
42147;DHT22;27815;43.410;11.852;2024-02-28T17:52:09;14.90;61.40
42147;DHT22;27815;43.410;11.852;2024-02-28T17:56:12;14.90;61.50
42147;DHT22;27815;43.410;11.852;2024-02-28T18:00:16;14.90;61.60
42147;DHT22;27815;43.410;11.852;2024-02-28T18:04:24;14.80;61.70
42147;DHT22;27815;43.410;11.852;2024-02-28T18:08:27;14.80;61.80
42147;DHT22;27815;43.410;11.852;2024-02-28T18:12:33;14.80;61.90
42147;DHT22;27815;43.410;11.852;2024-02-28T18:16:36;14.80;61.90
42147;DHT22;27815;43.410;11.852;2024-02-28T18:20:40;14.80;61.90
42147;DHT22;27815;43.410;11.852;2024-02-28T18:24:44;14.80;62.00
42147;DHT22;27815;43.410;11.852;2024-02-28T18:28:47;14.70;62.10
42147;DHT22;27815;43.410;11.852;2024-02-28T18:32:50;14.70;62.20
42147;DHT22;27815;43.410;11.852;2024-02-28T18:36:55;14.60;62.30
42147;DHT22;27815;43.410;11.852;2024-02-28T18:40:59;14.60;62.50
42147;DHT22;27815;43.410;11.852;2024-02-28T18:45:03;14.60;62.50
42147;DHT22;27815;43.410;11.852;2024-02-28T18:49:09;14.60;62.70
42147;DHT22;27815;43.410;11.852;2024-02-28T18:53:12;14.50;62.70
42147;DHT22;27815;43.410;11.852;2024-02-28T18:57:15;14.60;62.80
42147;DHT22;27815;43.410;11.852;2024-02-28T19:01:18;14.50;63.00
42147;DHT22;27815;43.410;11.852;2024-02-28T19:05:22;14.50;63.10
42147;DHT22;27815;43.410;11.852;2024-02-28T19:09:25;14.50;63.30
42147;DHT22;27815;43.410;11.852;2024-02-28T19:13:28;14.50;63.50
42147;DHT22;27815;43.410;11.852;2024-02-28T19:17:55;14.50;63.70
42147;DHT22;27815;43.410;11.852;2024-02-28T19:22:00;14.50;63.90
42147;DHT22;27815;43.410;11.852;2024-02-28T19:26:03;14.50;64.10
42147;DHT22;27815;43.410;11.852;2024-02-28T19:30:07;14.50;64.10
42147;DHT22;27815;43.410;11.852;2024-02-28T19:34:11;14.50;64.40
42147;DHT22;27815;43.410;11.852;2024-02-28T19:38:16;14.50;64.50
42147;DHT22;27815;43.410;11.852;2024-02-28T19:42:19;14.50;64.50
42147;DHT22;27815;43.410;11.852;2024-02-28T19:46:22;14.50;64.60
42147;DHT22;27815;43.410;11.852;2024-02-28T19:50:25;14.50;64.70
42147;DHT22;27815;43.410;11.852;2024-02-28T19:54:28;14.50;64.60
42147;DHT22;27815;43.410;11.852;2024-02-28T19:58:31;14.50;64.70
42147;DHT22;27815;43.410;11.852;2024-02-28T20:02:34;14.50;64.70
42147;DHT22;27815;43.410;11.852;2024-02-28T20:06:37;14.60;64.60
42147;DHT22;27815;43.410;11.852;2024-02-28T20:10:44;14.60;64.60
42147;DHT22;27815;43.410;11.852;2024-02-28T20:14:48;14.60;64.40
42147;DHT22;27815;43.410;11.852;2024-02-28T20:18:55;14.60;64.20
42147;DHT22;27815;43.410;11.852;2024-02-28T20:22:59;14.60;64.10
42147;DHT22;27815;43.410;11.852;2024-02-28T20:27:03;14.70;63.90
42147;DHT22;27815;43.410;11.852;2024-02-28T20:31:17;14.80;63.90
42147;DHT22;27815;43.410;11.852;2024-02-28T20:35:25;14.80;63.80
42147;DHT22;27815;43.410;11.852;2024-02-28T20:39:28;14.70;63.80
42147;DHT22;27815;43.410;11.852;2024-02-28T20:43:31;14.80;63.70
42147;DHT22;27815;43.410;11.852;2024-02-28T20:47:36;14.80;63.70
42147;DHT22;27815;43.410;11.852;2024-02-28T20:51:40;14.80;63.60
42147;DHT22;27815;43.410;11.852;2024-02-28T20:55:43;14.80;63.60
42147;DHT22;27815;43.410;11.852;2024-02-28T20:59:46;14.80;63.70
42147;DHT22;27815;43.410;11.852;2024-02-28T21:03:51;14.80;63.70
42147;DHT22;27815;43.410;11.852;2024-02-28T21:07:57;14.80;63.70
42147;DHT22;27815;43.410;11.852;2024-02-28T21:12:02;14.80;63.60
42147;DHT22;27815;43.410;11.852;2024-02-28T21:16:05;14.80;63.60
42147;DHT22;27815;43.410;11.852;2024-02-28T21:20:08;14.90;63.70
42147;DHT22;27815;43.410;11.852;2024-02-28T21:24:11;14.90;63.60
42147;DHT22;27815;43.410;11.852;2024-02-28T21:28:16;14.90;63.70
42147;DHT22;27815;43.410;11.852;2024-02-28T21:32:19;14.90;63.70
42147;DHT22;27815;43.410;11.852;2024-02-28T21:36:24;14.90;63.80
42147;DHT22;27815;43.410;11.852;2024-02-28T21:40:28;15.00;63.80
42147;DHT22;27815;43.410;11.852;2024-02-28T21:44:32;15.00;63.80
42147;DHT22;27815;43.410;11.852;2024-02-28T21:48:34;15.00;63.80
42147;DHT22;27815;43.410;11.852;2024-02-28T21:52:37;15.00;63.90
42147;DHT22;27815;43.410;11.852;2024-02-28T21:56:41;15.00;63.90
42147;DHT22;27815;43.410;11.852;2024-02-28T22:00:45;15.00;64.00
42147;DHT22;27815;43.410;11.852;2024-02-28T22:04:48;15.10;64.10
42147;DHT22;27815;43.410;11.852;2024-02-28T22:08:51;15.10;64.10
42147;DHT22;27815;43.410;11.852;2024-02-28T22:12:59;15.10;64.10
42147;DHT22;27815;43.410;11.852;2024-02-28T22:17:06;15.20;64.00
42147;DHT22;27815;43.410;11.852;2024-02-28T22:21:09;15.20;64.00
42147;DHT22;27815;43.410;11.852;2024-02-28T22:25:12;15.20;63.90
42147;DHT22;27815;43.410;11.852;2024-02-28T22:29:14;15.20;63.90
42147;DHT22;27815;43.410;11.852;2024-02-28T22:33:21;15.20;64.00
42147;DHT22;27815;43.410;11.852;2024-02-28T22:37:24;15.20;64.00
42147;DHT22;27815;43.410;11.852;2024-02-28T22:41:27;15.20;64.10
42147;DHT22;27815;43.410;11.852;2024-02-28T22:45:30;15.20;64.10
42147;DHT22;27815;43.410;11.852;2024-02-28T22:49:33;15.20;64.20
42147;DHT22;27815;43.410;11.852;2024-02-28T22:53:39;15.20;64.20
42147;DHT22;27815;43.410;11.852;2024-02-28T22:57:42;15.30;64.30
42147;DHT22;27815;43.410;11.852;2024-02-28T23:01:45;15.20;64.20
42147;DHT22;27815;43.410;11.852;2024-02-28T23:05:48;15.20;64.30
42147;DHT22;27815;43.410;11.852;2024-02-28T23:09:51;15.20;64.30
42147;DHT22;27815;43.410;11.852;2024-02-28T23:13:54;15.20;64.30
42147;DHT22;27815;43.410;11.852;2024-02-28T23:17:57;15.20;64.40
42147;DHT22;27815;43.410;11.852;2024-02-28T23:22:01;15.20;64.30
42147;DHT22;27815;43.410;11.852;2024-02-28T23:26:04;15.20;64.30
42147;DHT22;27815;43.410;11.852;2024-02-28T23:30:07;15.20;64.30
42147;DHT22;27815;43.410;11.852;2024-02-28T23:34:11;15.20;64.20
42147;DHT22;27815;43.410;11.852;2024-02-28T23:38:15;15.30;64.10
42147;DHT22;27815;43.410;11.852;2024-02-28T23:42:18;15.20;64.00
42147;DHT22;27815;43.410;11.852;2024-02-28T23:46:21;15.30;64.10
42147;DHT22;27815;43.410;11.852;2024-02-28T23:50:23;15.30;64.10
42147;DHT22;27815;43.410;11.852;2024-02-28T23:54:26;15.20;64.20
42147;DHT22;27815;43.410;11.852;2024-02-28T23:58:29;15.20;64.20
